Time;durP1;ratioP1;P1;durP2;ratioP2;P2;SDS_P1;SDS_P2;PMS_P1;PMS_P2;Temp;Humidity;BMP_temperature;BMP_pressure;BME280_temperature;BME280_humidity;BME280_pressure;Samples;Min_cycle;Max_cycle;Signal;HPM_P1;HPM_P2
2021/06/04 00:01:22;;;;;;;;;;;;;;;21.43;50.74;101329.00;5038438;28;486;-59
2021/06/04 00:03:47;;;;;;;;;;;;;;;21.50;50.82;101335.03;5019912;28;1318;-65
2021/06/04 00:06:13;;;;;;;;;;;;;;;21.45;50.74;101337.84;5037643;28;811;-60
2021/06/04 00:08:38;;;;;;;;;;;;;;;21.59;50.48;101326.94;5038104;28;932;-66
2021/06/04 00:11:11;;;;;;;;;;;;;;;21.57;50.66;101333.88;5037764;28;2393;-66
2021/06/04 00:13:38;;;;;;;;;;;;;;;21.72;50.10;101322.63;5038095;28;824;-65
2021/06/04 00:16:14;;;;;;;;;;;;;;;21.81;49.77;101328.34;5037851;28;1140;-59
2021/06/04 00:18:40;;;;;;;;;;;;;;;21.62;50.35;101329.13;5037312;28;1007;-65
2021/06/04 00:21:07;;;;;;;;;;;;;;;21.60;49.97;101328.59;5037662;28;760;-59
2021/06/04 00:23:32;;;;;;;;;;;;;;;21.40;50.54;101323.25;5020108;28;808;-59
2021/06/04 00:25:58;;;;;;;;;;;;;;;21.53;50.72;101325.34;5020165;28;1120;-61
2021/06/04 00:28:24;;;;;;;;;;;;;;;21.69;50.21;101323.22;5019113;28;858;-59
2021/06/04 00:30:49;;;;;;;;;;;;;;;21.56;50.59;101319.25;5037466;28;1968;-66
2021/06/04 00:33:15;;;;;;;;;;;;;;;21.59;50.44;101317.78;5037010;28;975;-60
2021/06/04 00:35:41;;;;;;;;;;;;;;;21.70;50.36;101322.13;5037443;28;741;-60
2021/06/04 00:38:06;;;;;;;;;;;;;;;21.53;50.90;101325.34;5037516;28;784;-60
2021/06/04 00:40:34;;;;;;;;;;;;;;;21.41;50.96;101330.44;5037116;28;745;-60
2021/06/04 00:42:59;;;;;;;;;;;;;;;21.37;51.01;101324.66;5019020;28;941;-59
2021/06/04 00:45:28;;;;;;;;;;;;;;;21.67;50.40;101325.44;5019868;28;1124;-60
2021/06/04 00:47:55;;;;;;;;;;;;;;;21.75;50.25;101319.28;4998932;28;1256;-59
2021/06/04 00:50:24;;;;;;;;;;;;;;;21.99;49.51;101321.19;5015819;28;1987;-59
2021/06/04 00:52:50;;;;;;;;;;;;;;;21.98;49.66;101316.75;5014169;28;1240;-66
2021/06/04 00:55:16;;;;;;;;;;;;;;;22.09;49.25;101323.00;5019315;28;896;-59
2021/06/04 00:57:42;;;;;;;;;;;;;;;22.01;49.58;101316.19;5019422;28;1279;-60
2021/06/04 01:00:15;;;;;;;;;;;;;;;22.19;49.10;101323.69;5019601;28;1135;-59
2021/06/04 01:02:43;;;;;;;;;;;;;;;22.06;49.56;101318.88;5019129;28;1098;-58
2021/06/04 01:05:09;;;;;;;;;;;;;;;22.11;49.35;101320.75;5036739;28;819;-64
2021/06/04 01:07:36;;;;;;;;;;;;;;;22.08;49.31;101316.63;5019163;28;1227;-65
2021/06/04 01:10:16;;;;;;;;;;;;;;;21.85;49.64;101318.31;5035356;28;1910;-59
2021/06/04 01:13:14;;;;;;;;;;;;;;;21.49;50.26;101315.94;5035440;28;753;-60
2021/06/04 01:16:01;;;;;;;;;;;;;;;21.51;50.05;101313.72;5014077;28;1329;-64
2021/06/04 01:18:45;;;;;;;;;;;;;;;21.37;50.78;101319.13;5015245;28;1048;-65
2021/06/04 01:21:34;;;;;;;;;;;;;;;21.61;50.86;101321.13;5036625;28;749;-60
2021/06/04 01:24:02;;;;;;;;;;;;;;;21.62;50.70;101317.22;5014043;28;1237;-60
2021/06/04 01:26:27;;;;;;;;;;;;;;;21.66;50.67;101321.88;5018809;28;800;-60
2021/06/04 01:28:55;;;;;;;;;;;;;;;21.93;49.89;101325.16;5036612;28;784;-59
2021/06/04 01:31:27;;;;;;;;;;;;;;;21.77;50.19;101325.34;5018750;28;1918;-59
2021/06/04 01:34:14;;;;;;;;;;;;;;;21.60;50.23;101325.84;5017649;28;1008;-59
2021/06/04 01:36:50;;;;;;;;;;;;;;;21.33;51.36;101329.94;5030943;28;1134;-58
2021/06/04 01:39:20;;;;;;;;;;;;;;;21.41;51.22;101336.78;5035131;28;788;-63
2021/06/04 01:41:49;;;;;;;;;;;;;;;21.62;50.66;101328.31;5034911;28;855;-62
2021/06/04 01:44:28;;;;;;;;;;;;;;;21.57;50.55;101331.94;5036409;28;819;-60
2021/06/04 01:46:59;;;;;;;;;;;;;;;21.74;50.37;101327.88;5018674;28;1353;-64
2021/06/04 01:49:25;;;;;;;;;;;;;;;21.72;50.16;101328.16;4999552;28;825;-59
2021/06/04 01:51:56;;;;;;;;;;;;;;;21.78;50.07;101329.75;5004562;28;1914;-60
2021/06/04 01:54:31;;;;;;;;;;;;;;;21.45;50.63;101332.31;5019949;28;1151;-63
2021/06/04 01:57:01;;;;;;;;;;;;;;;21.30;50.79;101335.25;5002322;28;1772;-64
2021/06/04 01:59:29;;;;;;;;;;;;;;;21.32;50.69;101333.00;5018956;28;1183;-62
2021/06/04 02:02:06;;;;;;;;;;;;;;;21.33;51.14;101329.13;5001496;28;1159;-61
2021/06/04 02:04:34;;;;;;;;;;;;;;;21.20;51.55;101322.34;5001868;28;1219;-62
2021/06/04 02:07:00;;;;;;;;;;;;;;;21.30;51.48;101330.53;5018180;28;782;-63
2021/06/04 02:09:26;;;;;;;;;;;;;;;21.37;51.06;101335.72;5017970;28;804;-62
2021/06/04 02:11:58;;;;;;;;;;;;;;;21.42;50.75;101338.44;5017656;28;1991;-63
2021/06/04 02:14:30;;;;;;;;;;;;;;;21.29;50.12;101333.59;5036085;28;788;-59
2021/06/04 02:17:03;;;;;;;;;;;;;;;21.27;50.47;101330.31;5002217;28;1290;-66
2021/06/04 02:19:47;;;;;;;;;;;;;;;21.34;51.20;101337.13;5019777;28;1195;-64
2021/06/04 02:22:31;;;;;;;;;;;;;;;21.35;51.03;101344.31;5007629;28;1231;-60
2021/06/04 02:25:04;;;;;;;;;;;;;;;21.23;51.11;101334.78;5039465;28;859;-64
2021/06/04 02:27:36;;;;;;;;;;;;;;;21.45;51.06;101337.84;5022459;28;1250;-63
2021/06/04 02:30:18;;;;;;;;;;;;;;;21.25;51.58;101349.13;5021916;28;1906;-60
2021/06/04 02:32:55;;;;;;;;;;;;;;;21.24;51.14;101345.53;5038997;28;955;-59
2021/06/04 02:35:28;;;;;;;;;;;;;;;21.05;51.79;101342.66;5005764;28;1219;-60
2021/06/04 02:37:59;;;;;;;;;;;;;;;21.44;51.03;101352.81;5021556;28;916;-64
2021/06/04 02:40:32;;;;;;;;;;;;;;;21.41;50.87;101353.38;5005523;28;1235;-60
2021/06/04 02:43:04;;;;;;;;;;;;;;;21.51;50.71;101352.47;5039689;28;815;-65
2021/06/04 02:45:35;;;;;;;;;;;;;;;21.42;50.88;101349.50;5005744;28;1144;-59
2021/06/04 02:48:02;;;;;;;;;;;;;;;21.60;50.77;101356.28;5001891;28;1100;-61
2021/06/04 02:50:36;;;;;;;;;;;;;;;21.56;50.37;101354.38;5001875;28;1973;-59
2021/06/04 02:53:22;;;;;;;;;;;;;;;21.57;50.63;101353.25;5035109;28;1207;-59
2021/06/04 02:56:08;;;;;;;;;;;;;;;21.50;50.74;101353.56;5021590;28;836;-64
2021/06/04 02:58:36;;;;;;;;;;;;;;;21.52;50.68;101366.03;5005863;28;1140;-59
2021/06/04 03:01:03;;;;;;;;;;;;;;;21.51;50.77;101369.88;5021296;28;1238;-59
2021/06/04 03:03:29;;;;;;;;;;;;;;;21.34;51.29;101370.31;5038487;28;1023;-64
2021/06/04 03:05:55;;;;;;;;;;;;;;;21.56;50.61;101371.81;5021730;28;1266;-60
2021/06/04 03:08:22;;;;;;;;;;;;;;;21.47;50.99;101368.00;5038992;28;761;-60
2021/06/04 03:10:48;;;;;;;;;;;;;;;21.47;50.73;101366.03;5020997;28;1973;-61
2021/06/04 03:13:15;;;;;;;;;;;;;;;21.45;50.85;101373.00;5039148;28;831;-59
2021/06/04 03:15:45;;;;;;;;;;;;;;;21.36;51.39;101376.41;5038623;28;1025;-59
2021/06/04 03:18:19;;;;;;;;;;;;;;;21.72;50.33;101378.00;5020534;28;1061;-59
2021/06/04 03:20:46;;;;;;;;;;;;;;;21.95;49.70;101383.81;5021478;28;1284;-52
2021/06/04 03:23:14;;;;;;;;;;;;;;;21.61;50.25;101379.22;5021154;28;1132;-63
2021/06/04 03:25:41;;;;;;;;;;;;;;;21.45;50.69;101384.06;5005075;28;1329;-58
2021/06/04 03:28:08;;;;;;;;;;;;;;;21.28;50.94;101390.03;5038847;28;862;-55
2021/06/04 03:30:35;;;;;;;;;;;;;;;21.30;51.37;101401.63;5038120;28;1910;-63
2021/06/04 03:33:02;;;;;;;;;;;;;;;21.38;51.31;101392.72;5037931;28;1015;-58
2021/06/04 03:35:29;;;;;;;;;;;;;;;21.39;51.18;101391.56;5020690;28;1092;-66
2021/06/04 03:37:54;;;;;;;;;;;;;;;21.44;50.86;101385.19;5038501;28;847;-55
2021/06/04 03:40:22;;;;;;;;;;;;;;;21.48;50.83;101389.84;5038522;28;784;-50
2021/06/04 03:42:48;;;;;;;;;;;;;;;21.79;50.09;101386.75;5020774;28;1199;-47
2021/06/04 03:45:16;;;;;;;;;;;;;;;21.53;50.56;101389.81;5004664;28;1088;-50
2021/06/04 03:47:42;;;;;;;;;;;;;;;21.49;50.54;101391.50;5037535;28;1027;-48
2021/06/04 03:50:08;;;;;;;;;;;;;;;21.56;50.50;101387.56;5020731;28;1910;-48
2021/06/04 03:52:33;;;;;;;;;;;;;;;21.52;50.63;101385.41;5038160;28;1211;-48
2021/06/04 03:54:59;;;;;;;;;;;;;;;21.59;50.42;101392.50;5020607;28;1096;-60
2021/06/04 03:57:26;;;;;;;;;;;;;;;21.49;50.67;101376.81;5038166;28;795;-54
2021/06/04 03:59:51;;;;;;;;;;;;;;;21.56;50.40;101382.03;5020413;28;1398;-50
2021/06/04 04:02:17;;;;;;;;;;;;;;;21.55;50.42;101386.75;5037521;28;916;-50
2021/06/04 04:04:43;;;;;;;;;;;;;;;21.60;50.49;101380.34;5038001;28;753;-49
2021/06/04 04:07:09;;;;;;;;;;;;;;;21.77;49.83;101379.88;5038127;28;807;-58
2021/06/04 04:09:34;;;;;;;;;;;;;;;22.01;49.40;101382.66;5038252;28;764;-52
2021/06/04 04:12:00;;;;;;;;;;;;;;;22.08;49.18;101376.72;5037799;28;1918;-51
2021/06/04 04:14:25;;;;;;;;;;;;;;;21.93;49.41;101373.03;5037894;28;844;-49
2021/06/04 04:16:51;;;;;;;;;;;;;;;21.99;49.18;101382.09;5037332;28;1226;-54
2021/06/04 04:19:19;;;;;;;;;;;;;;;22.04;49.20;101376.50;5037343;28;941;-59
2021/06/04 04:21:45;;;;;;;;;;;;;;;21.93;49.45;101375.81;5037334;28;761;-53
2021/06/04 04:24:12;;;;;;;;;;;;;;;21.96;49.21;101394.59;5037655;28;823;-50
2021/06/04 04:26:38;;;;;;;;;;;;;;;22.02;49.31;101389.81;5037796;28;783;-53
2021/06/04 04:29:03;;;;;;;;;;;;;;;22.12;49.03;101383.31;5020009;28;1034;-60
2021/06/04 04:31:30;;;;;;;;;;;;;;;22.21;48.76;101387.91;5037595;28;1914;-61
2021/06/04 04:33:55;;;;;;;;;;;;;;;22.15;48.95;101379.97;5036819;28;1039;-60
2021/06/04 04:36:23;;;;;;;;;;;;;;;22.34;48.58;101391.09;5037491;28;808;-50
2021/06/04 04:38:48;;;;;;;;;;;;;;;22.28;48.74;101395.03;5037274;28;745;-58
2021/06/04 04:41:14;;;;;;;;;;;;;;;22.22;48.77;101395.09;5036790;28;737;-60
2021/06/04 04:43:50;;;;;;;;;;;;;;;22.29;48.71;101382.84;5037024;28;839;-49
2021/06/04 04:46:15;;;;;;;;;;;;;;;22.01;49.31;101383.47;5037038;28;834;-47
2021/06/04 04:48:41;;;;;;;;;;;;;;;21.67;50.18;101387.19;5036765;28;1011;-48
2021/06/04 04:51:07;;;;;;;;;;;;;;;21.41;50.22;101383.00;5037214;28;1980;-50
2021/06/04 04:53:32;;;;;;;;;;;;;;;21.69;50.41;101384.13;5037062;28;745;-59
2021/06/04 04:55:58;;;;;;;;;;;;;;;22.12;49.05;101386.94;5037071;28;812;-56
2021/06/04 04:58:23;;;;;;;;;;;;;;;22.16;48.85;101384.38;5037103;28;792;-49
2021/06/04 05:00:49;;;;;;;;;;;;;;;21.83;49.62;101392.56;5036595;28;749;-51
2021/06/04 05:03:15;;;;;;;;;;;;;;;21.81;49.52;101395.63;5036568;28;984;-59
2021/06/04 05:05:40;;;;;;;;;;;;;;;21.69;49.67;101392.44;5037642;28;706;-59
2021/06/04 05:08:06;;;;;;;;;;;;;;;21.68;49.94;101391.59;5036457;28;839;-58
2021/06/04 05:10:32;;;;;;;;;;;;;;;21.78;49.94;101390.66;5036639;28;1979;-48
2021/06/04 05:12:57;;;;;;;;;;;;;;;21.83;49.64;101404.44;5036852;28;748;-47
2021/06/04 05:15:24;;;;;;;;;;;;;;;22.01;49.27;101402.03;5036064;28;1123;-59
2021/06/04 05:17:49;;;;;;;;;;;;;;;22.01;49.19;101402.03;5036095;28;1023;-55
2021/06/04 05:20:15;;;;;;;;;;;;;;;22.08;48.83;101401.66;5036795;28;753;-45
2021/06/04 05:22:41;;;;;;;;;;;;;;;22.11;48.69;101398.31;5035985;28;736;-53
2021/06/04 05:25:07;;;;;;;;;;;;;;;22.07;49.10;101409.16;5025459;28;1176;-59
2021/06/04 05:27:33;;;;;;;;;;;;;;;22.15;48.73;101411.25;5025816;28;1168;-46
2021/06/04 05:29:58;;;;;;;;;;;;;;;22.21;48.55;101415.59;5027980;28;2040;-50
2021/06/04 05:32:24;;;;;;;;;;;;;;;22.20;48.71;101413.13;5012485;28;1246;-51
2021/06/04 05:34:49;;;;;;;;;;;;;;;22.26;48.60;101422.19;5035930;28;1096;-51
2021/06/04 05:37:14;;;;;;;;;;;;;;;22.26;48.57;101423.06;5036018;28;1183;-57
2021/06/04 05:39:40;;;;;;;;;;;;;;;22.14;48.91;101423.47;5035545;28;1270;-47
2021/06/04 05:42:05;;;;;;;;;;;;;;;22.13;48.68;101427.38;5035227;28;1262;-50
2021/06/04 05:44:31;;;;;;;;;;;;;;;22.32;48.29;101432.13;5035593;28;1251;-57
2021/06/04 05:46:58;;;;;;;;;;;;;;;22.12;48.77;101434.03;5033686;28;1207;-50
2021/06/04 05:49:24;;;;;;;;;;;;;;;22.12;48.92;101441.47;5033890;28;1084;-46
2021/06/04 05:51:49;;;;;;;;;;;;;;;22.26;48.69;101427.75;5034974;28;1957;-46
2021/06/04 05:54:16;;;;;;;;;;;;;;;22.33;48.35;101425.44;5035192;28;1179;-45
2021/06/04 05:56:42;;;;;;;;;;;;;;;22.27;48.40;101430.22;5035195;28;1310;-47
2021/06/04 05:59:07;;;;;;;;;;;;;;;22.36;48.33;101438.75;5035548;28;1348;-48
2021/06/04 06:01:34;;;;;;;;;;;;;;;22.39;48.15;101421.53;5034871;28;1246;-49
2021/06/04 06:04:00;;;;;;;;;;;;;;;22.37;48.27;101434.84;5035335;28;955;-45
2021/06/04 06:06:25;;;;;;;;;;;;;;;22.26;48.45;101433.28;5036052;28;816;-48
2021/06/04 06:08:51;;;;;;;;;;;;;;;22.31;48.54;101427.69;5035926;28;740;-53
2021/06/04 06:11:17;;;;;;;;;;;;;;;22.16;48.40;101437.84;5035997;28;1977;-46
2021/06/04 06:13:42;;;;;;;;;;;;;;;22.32;48.31;101434.88;5036102;28;863;-45
2021/06/04 06:16:08;;;;;;;;;;;;;;;22.33;48.46;101433.75;5035752;28;1183;-46
2021/06/04 06:18:34;;;;;;;;;;;;;;;22.10;48.87;101436.25;5035514;28;968;-45
2021/06/04 06:20:59;;;;;;;;;;;;;;;21.43;50.51;101439.69;5035964;28;749;-45
2021/06/04 06:23:26;;;;;;;;;;;;;;;21.18;50.69;101436.03;5035546;28;816;-45
2021/06/04 06:25:55;;;;;;;;;;;;;;;21.30;50.64;101448.66;5035839;28;800;-45
2021/06/04 06:28:20;;;;;;;;;;;;;;;21.50;50.57;101447.66;5035873;28;867;-46
2021/06/04 06:30:46;;;;;;;;;;;;;;;21.70;49.88;101450.25;5035534;28;1906;-45
2021/06/04 06:33:11;;;;;;;;;;;;;;;21.83;49.62;101450.69;5035246;28;1119;-46
2021/06/04 06:35:38;;;;;;;;;;;;;;;21.99;49.20;101448.56;5035821;28;788;-45
2021/06/04 06:38:04;;;;;;;;;;;;;;;21.88;49.41;101457.00;5035570;28;846;-46
2021/06/04 06:40:29;;;;;;;;;;;;;;;21.84;49.50;101450.38;5035674;28;796;-45
2021/06/04 06:42:55;;;;;;;;;;;;;;;21.84;49.47;101452.34;5035809;28;516;-47
2021/06/04 06:45:23;;;;;;;;;;;;;;;22.14;48.73;101453.13;5035281;28;863;-46
2021/06/04 06:47:49;;;;;;;;;;;;;;;22.15;48.66;101438.97;5035180;28;992;-46
2021/06/04 06:50:14;;;;;;;;;;;;;;;22.14;48.61;101448.38;5001514;28;1922;-44
2021/06/04 06:52:40;;;;;;;;;;;;;;;22.16;48.70;101450.84;5035130;28;1148;-45
2021/06/04 06:55:06;;;;;;;;;;;;;;;22.28;48.39;101454.03;5036009;28;799;-44
2021/06/04 06:57:32;;;;;;;;;;;;;;;22.29;48.29;101443.81;5035672;28;768;-45
2021/06/04 06:59:58;;;;;;;;;;;;;;;22.28;48.46;101453.22;5035094;28;792;-48
2021/06/04 07:02:24;;;;;;;;;;;;;;;22.12;49.06;101449.78;5035080;28;987;-46
2021/06/04 07:04:49;;;;;;;;;;;;;;;22.24;48.31;101435.53;5036313;28;804;-49
2021/06/04 07:07:18;;;;;;;;;;;;;;;22.30;48.32;101439.88;5038729;28;761;-45
2021/06/04 07:09:44;;;;;;;;;;;;;;;22.39;47.87;101435.38;5022307;28;729;-46
2021/06/04 07:12:09;;;;;;;;;;;;;;;22.40;47.86;101437.03;5039108;28;1910;-45
2021/06/04 07:14:35;;;;;;;;;;;;;;;22.39;47.92;101438.16;5038646;28;828;-45
2021/06/04 07:17:01;;;;;;;;;;;;;;;22.34;48.10;101435.44;5038454;28;1053;-45
2021/06/04 07:19:27;;;;;;;;;;;;;;;22.38;47.96;101436.50;5038802;28;1187;-45
2021/06/04 07:21:53;;;;;;;;;;;;;;;22.39;47.95;101443.69;5038514;28;812;-45
2021/06/04 07:24:19;;;;;;;;;;;;;;;22.09;48.69;101434.63;5039169;28;906;-46
2021/06/04 07:26:45;;;;;;;;;;;;;;;21.77;49.68;101433.31;5038822;28;732;-45
2021/06/04 07:29:11;;;;;;;;;;;;;;;21.53;49.91;101436.88;5038714;28;840;-45
2021/06/04 07:31:37;;;;;;;;;;;;;;;21.05;51.74;101444.97;5039012;28;1981;-45
2021/06/04 07:34:05;;;;;;;;;;;;;;;21.82;49.76;101441.53;5038060;28;975;-45
2021/06/04 07:36:31;;;;;;;;;;;;;;;22.05;48.99;101433.56;5038342;28;708;-45
2021/06/04 07:38:57;;;;;;;;;;;;;;;21.95;49.02;101436.44;5020878;28;880;-47
2021/06/04 07:41:22;;;;;;;;;;;;;;;21.69;49.62;101439.47;5038380;28;872;-44
2021/06/04 07:43:48;;;;;;;;;;;;;;;21.81;49.19;101444.59;5038170;28;740;-45
2021/06/04 07:46:14;;;;;;;;;;;;;;;21.66;49.70;101442.84;5037561;28;1095;-46
2021/06/04 07:48:39;;;;;;;;;;;;;;;21.90;49.22;101442.03;5038000;28;964;-48
2021/06/04 07:51:06;;;;;;;;;;;;;;;22.28;48.19;101445.72;5038140;28;1975;-45
2021/06/04 07:53:32;;;;;;;;;;;;;;;22.38;48.00;101444.81;5038236;28;1267;-50
2021/06/04 07:55:57;;;;;;;;;;;;;;;22.16;48.46;101450.84;5038208;28;954;-45
2021/06/04 07:58:23;;;;;;;;;;;;;;;21.61;49.96;101454.75;5020435;28;828;-46
2021/06/04 08:00:48;;;;;;;;;;;;;;;21.17;50.40;101459.25;5020599;28;757;-60
2021/06/04 08:03:14;;;;;;;;;;;;;;;21.36;50.39;101455.78;5037676;28;967;-44
2021/06/04 08:05:40;;;;;;;;;;;;;;;21.53;49.65;101450.69;5037896;28;824;-44
2021/06/04 08:08:06;;;;;;;;;;;;;;;21.47;49.79;101451.81;5037965;28;736;-45
2021/06/04 08:10:32;;;;;;;;;;;;;;;21.41;50.22;101458.53;5037715;28;1910;-45
2021/06/04 08:12:58;;;;;;;;;;;;;;;21.44;50.07;101462.66;5037980;28;824;-49
2021/06/04 08:15:31;;;;;;;;;;;;;;;21.57;50.01;101464.75;5020271;28;1180;-47
2021/06/04 08:17:56;;;;;;;;;;;;;;;21.76;49.65;101464.06;5036408;28;1014;-46
2021/06/04 08:20:23;;;;;;;;;;;;;;;21.93;49.13;101455.28;5019482;28;846;-47
2021/06/04 08:22:53;;;;;;;;;;;;;;;22.17;48.18;101464.41;5037663;28;749;-44
2021/06/04 08:25:18;;;;;;;;;;;;;;;22.21;48.15;101453.56;5037964;28;555;-50
2021/06/04 08:27:44;;;;;;;;;;;;;;;22.31;48.09;101452.63;5037751;28;856;-45
2021/06/04 08:30:10;;;;;;;;;;;;;;;22.41;47.64;101454.47;5037474;28;1906;-45
2021/06/04 08:32:35;;;;;;;;;;;;;;;21.96;49.07;101457.47;5036908;28;932;-44
2021/06/04 08:35:01;;;;;;;;;;;;;;;21.81;49.52;101456.53;5037477;28;803;-45
2021/06/04 08:37:26;;;;;;;;;;;;;;;21.60;49.35;101458.66;5003715;28;1609;-44
2021/06/04 08:39:52;;;;;;;;;;;;;;;21.82;49.24;101455.38;5037319;28;776;-44
2021/06/04 08:42:23;;;;;;;;;;;;;;;22.24;48.35;101449.41;5037532;28;804;-45
2021/06/04 08:44:55;;;;;;;;;;;;;;;22.47;47.62;101456.88;5037319;28;820;-45
2021/06/04 08:47:21;;;;;;;;;;;;;;;22.46;47.48;101446.91;5036867;28;1018;-45
2021/06/04 08:50:05;;;;;;;;;;;;;;;22.08;48.65;101455.13;5037050;28;725;-49
2021/06/04 08:52:34;;;;;;;;;;;;;;;21.79;49.10;101458.75;5037039;28;1128;-44
2021/06/04 08:54:59;;;;;;;;;;;;;;;21.55;48.79;101460.66;5037514;28;780;-44
2021/06/04 08:58:00;;;;;;;;;;;;;;;21.93;49.26;101452.53;5036804;28;836;-43
2021/06/04 09:00:27;;;;;;;;;;;;;;;22.22;48.35;101450.50;4976105;28;1251;-44
2021/06/04 09:03:04;;;;;;;;;;;;;;;22.44;47.72;101445.56;4999746;28;1022;-43
2021/06/04 09:05:40;;;;;;;;;;;;;;;22.36;47.82;101447.06;4999626;28;757;-48
2021/06/04 09:08:07;;;;;;;;;;;;;;;21.98;49.04;101455.22;5017282;28;754;-43
2021/06/04 09:10:53;;;;;;;;;;;;;;;21.77;49.08;101441.63;4999517;28;1969;-43
2021/06/04 09:13:26;;;;;;;;;;;;;;;21.40;49.74;101467.13;4995703;28;1215;-45
2021/06/04 09:15:53;;;;;;;;;;;;;;;21.95;49.04;101461.34;5016964;28;1129;-43
2021/06/04 09:18:25;;;;;;;;;;;;;;;21.92;49.19;101450.88;5030608;28;882;-57
2021/06/04 09:21:00;;;;;;;;;;;;;;;22.11;48.57;101450.94;5018549;28;812;-43
2021/06/04 09:23:27;;;;;;;;;;;;;;;22.47;47.65;101445.81;5019299;28;864;-43
2021/06/04 09:25:52;;;;;;;;;;;;;;;22.06;48.65;101446.25;5036646;28;756;-44
2021/06/04 09:28:19;;;;;;;;;;;;;;;21.92;48.88;101451.69;5036062;28;834;-43
2021/06/04 09:30:46;;;;;;;;;;;;;;;21.60;49.25;101453.13;5036450;28;1906;-43
2021/06/04 09:33:13;;;;;;;;;;;;;;;21.45;50.27;101451.28;5035866;28;952;-44
2021/06/04 09:35:58;;;;;;;;;;;;;;;22.09;48.61;101453.16;5036117;28;866;-47
2021/06/04 09:38:44;;;;;;;;;;;;;;;22.40;47.86;101448.13;5029315;28;1692;-43
2021/06/04 09:41:31;;;;;;;;;;;;;;;22.49;47.53;101448.28;5036004;28;1676;-43
2021/06/04 09:44:02;;;;;;;;;;;;;;;22.08;48.64;101455.13;5029823;28;1694;-43
2021/06/04 09:46:32;;;;;;;;;;;;;;;22.11;48.42;101460.06;5036651;28;750;-44
2021/06/04 09:48:58;;;;;;;;;;;;;;;21.55;48.81;101444.88;5018415;28;1022;-43
2021/06/04 09:51:23;;;;;;;;;;;;;;;21.84;49.29;101442.09;5036353;28;1918;-54
2021/06/04 09:53:49;;;;;;;;;;;;;;;22.17;48.37;101436.72;5036478;28;760;-43
2021/06/04 09:56:19;;;;;;;;;;;;;;;22.56;47.21;101443.19;5036240;28;745;-43
2021/06/04 09:58:48;;;;;;;;;;;;;;;22.62;47.26;101438.38;5018620;28;729;-43
2021/06/04 10:01:15;;;;;;;;;;;;;;;22.37;47.77;101440.38;5036313;28;765;-55
2021/06/04 10:03:41;;;;;;;;;;;;;;;21.88;48.88;101434.84;5036162;28;1014;-50
2021/06/04 10:06:06;;;;;;;;;;;;;;;21.69;49.02;101433.94;5035854;28;845;-52
2021/06/04 10:08:51;;;;;;;;;;;;;;;21.46;50.16;101436.34;5036500;28;817;-43
2021/06/04 10:11:21;;;;;;;;;;;;;;;21.88;49.04;101429.31;5018123;28;1909;-58
2021/06/04 10:13:48;;;;;;;;;;;;;;;22.28;48.18;101433.81;5036405;28;776;-48
2021/06/04 10:16:40;;;;;;;;;;;;;;;22.30;47.86;101440.72;5018101;28;1332;-44
2021/06/04 10:19:16;;;;;;;;;;;;;;;22.22;48.25;101436.66;5035529;28;881;-54
2021/06/04 10:21:41;;;;;;;;;;;;;;;22.28;47.88;101442.13;5035778;28;820;-58
2021/06/04 10:24:06;;;;;;;;;;;;;;;22.29;47.87;101443.81;5035842;28;868;-59
2021/06/04 10:26:36;;;;;;;;;;;;;;;22.34;47.73;101435.44;5017840;28;1287;-45
2021/06/04 10:29:08;;;;;;;;;;;;;;;22.39;47.58;101443.69;5035347;28;1195;-53
2021/06/04 10:31:48;;;;;;;;;;;;;;;22.35;47.78;101432.38;5035153;28;1976;-45
2021/06/04 10:34:20;;;;;;;;;;;;;;;21.88;49.13;101439.53;5032750;28;1301;-44
2021/06/04 10:36:46;;;;;;;;;;;;;;;21.65;49.35;101435.66;5023579;28;1207;-44
2021/06/04 10:39:22;;;;;;;;;;;;;;;21.25;50.13;101437.63;5033689;28;1250;-45
2021/06/04 10:41:54;;;;;;;;;;;;;;;21.96;48.99;101443.63;5021627;28;828;-45
2021/06/04 10:44:28;;;;;;;;;;;;;;;22.29;48.13;101449.34;5022075;28;765;-51
2021/06/04 10:47:00;;;;;;;;;;;;;;;22.56;47.30;101445.94;5039529;28;967;-50
2021/06/04 10:49:27;;;;;;;;;;;;;;;22.18;48.36;101441.13;5038295;28;868;-49
2021/06/04 10:51:52;;;;;;;;;;;;;;;22.08;48.45;101443.19;5037917;28;1901;-58
2021/06/04 10:54:21;;;;;;;;;;;;;;;21.61;48.15;101434.56;5039526;28;756;-47
2021/06/04 10:56:55;;;;;;;;;;;;;;;21.81;49.51;101439.06;5039285;28;785;-45
2021/06/04 10:59:40;;;;;;;;;;;;;;;22.31;47.92;101431.28;5021598;28;761;-44
2021/06/04 11:02:05;;;;;;;;;;;;;;;22.39;47.58;101435.38;5038885;28;964;-59
2021/06/04 11:04:39;;;;;;;;;;;;;;;22.25;48.00;101443.56;5038885;28;737;-59
2021/06/04 11:07:31;;;;;;;;;;;;;;;21.99;48.61;101445.78;5039427;28;757;-60
2021/06/04 11:10:03;;;;;;;;;;;;;;;22.05;48.48;101450.16;5037020;28;1123;-58
2021/06/04 11:12:47;;;;;;;;;;;;;;;21.88;48.87;101451.47;5038661;28;1901;-46
2021/06/04 11:15:15;;;;;;;;;;;;;;;21.94;48.81;101454.19;5039161;28;772;-47
2021/06/04 11:17:44;;;;;;;;;;;;;;;21.94;48.79;101443.09;5038514;28;992;-59
2021/06/04 11:20:20;;;;;;;;;;;;;;;21.90;48.84;101439.28;5038490;28;844;-59
2021/06/04 11:23:04;;;;;;;;;;;;;;;21.74;49.11;101439.44;5038954;28;811;-44
2021/06/04 11:25:45;;;;;;;;;;;;;;;21.72;49.23;101447.19;5038766;28;763;-57
2021/06/04 11:28:26;;;;;;;;;;;;;;;21.64;49.42;101440.38;5021433;28;756;-58
2021/06/04 11:30:53;;;;;;;;;;;;;;;21.51;49.76;101441.00;5021498;28;1989;-54
2021/06/04 11:33:23;;;;;;;;;;;;;;;21.64;49.31;101442.28;5037953;28;1000;-55
2021/06/04 11:35:57;;;;;;;;;;;;;;;21.62;49.43;101433.47;5038648;28;784;-45
2021/06/04 11:38:43;;;;;;;;;;;;;;;21.81;48.99;101428.84;5038681;28;844;-56
2021/06/04 11:41:09;;;;;;;;;;;;;;;22.18;48.14;101427.28;5037844;28;1127;-55
2021/06/04 11:43:35;;;;;;;;;;;;;;;22.30;47.73;101432.41;5038474;28;808;-45
2021/06/04 11:46:36;;;;;;;;;;;;;;;22.00;48.44;101442.72;5020829;28;765;-46
2021/06/04 11:49:14;;;;;;;;;;;;;;;21.83;48.64;101443.19;4996191;28;1372;-46
2021/06/04 11:51:47;;;;;;;;;;;;;;;21.49;48.28;101449.59;5018242;28;1918;-51
2021/06/04 11:54:16;;;;;;;;;;;;;;;21.80;49.29;101446.56;5038147;28;816;-44
2021/06/04 11:56:47;;;;;;;;;;;;;;;22.30;47.71;101450.97;5037955;28;790;-45
2021/06/04 11:59:14;;;;;;;;;;;;;;;22.55;47.14;101447.06;5020565;28;776;-45
2021/06/04 12:01:44;;;;;;;;;;;;;;;22.51;47.25;101452.41;5020140;28;1023;-46
2021/06/04 12:04:10;;;;;;;;;;;;;;;22.04;48.20;101454.88;5036445;28;940;-44
2021/06/04 12:06:42;;;;;;;;;;;;;;;21.95;48.54;101453.03;5020659;28;907;-58
2021/06/04 12:09:43;;;;;;;;;;;;;;;21.55;48.75;101458.72;5037859;28;768;-55
2021/06/04 12:12:19;;;;;;;;;;;;;;;22.09;48.29;101448.47;4996740;28;1914;-59
2021/06/04 12:14:54;;;;;;;;;;;;;;;22.43;47.41;101450.28;5032570;28;938;-46
2021/06/04 12:17:19;;;;;;;;;;;;;;;22.13;48.01;101444.00;5036751;28;1211;-45
2021/06/04 12:19:45;;;;;;;;;;;;;;;22.02;48.35;101453.50;5037734;28;740;-46
2021/06/04 12:22:29;;;;;;;;;;;;;;;21.85;48.39;101446.50;5020509;28;758;-45
2021/06/04 12:24:55;;;;;;;;;;;;;;;21.65;49.87;101455.03;5037450;28;868;-47
2021/06/04 12:27:43;;;;;;;;;;;;;;;22.02;48.37;101445.19;5037720;28;863;-47
2021/06/04 12:30:10;;;;;;;;;;;;;;;22.42;47.55;101437.53;5018280;28;1184;-57
2021/06/04 12:32:47;;;;;;;;;;;;;;;22.35;47.39;101442.63;5036742;28;1011;-60
2021/06/04 12:35:33;;;;;;;;;;;;;;;22.02;48.59;101439.66;5037650;28;741;-60
2021/06/04 12:38:17;;;;;;;;;;;;;;;21.34;49.88;101442.25;5037014;28;1138;-60
2021/06/04 12:40:46;;;;;;;;;;;;;;;21.57;49.72;101436.28;5037170;28;782;-63
2021/06/04 12:43:24;;;;;;;;;;;;;;;22.08;48.29;101438.50;5019508;28;1303;-56
2021/06/04 12:46:10;;;;;;;;;;;;;;;22.38;47.66;101431.78;5037386;28;769;-56
2021/06/04 12:48:39;;;;;;;;;;;;;;;22.18;47.93;101429.25;5029171;28;1283;-60
2021/06/04 12:51:06;;;;;;;;;;;;;;;21.91;48.64;101427.06;5037280;28;1973;-46
2021/06/04 12:53:31;;;;;;;;;;;;;;;21.95;48.25;101420.66;5037226;28;1192;-55
2021/06/04 12:55:57;;;;;;;;;;;;;;;21.47;48.75;101420.56;5036924;28;737;-58
2021/06/04 12:58:25;;;;;;;;;;;;;;;21.89;48.81;101416.28;5037289;28;830;-45
2021/06/04 13:00:51;;;;;;;;;;;;;;;22.16;48.06;101412.91;5037623;28;780;-45
2021/06/04 13:03:29;;;;;;;;;;;;;;;22.47;47.43;101415.31;5035649;28;964;-48
2021/06/04 13:05:55;;;;;;;;;;;;;;;22.27;47.86;101415.56;5037277;28;736;-55